CYVM/YVM METAR and TAF weather

Enter ICAO airport designator
Station Type Date Time Source
CYVM METAR 2023/01/29 18:00 UTC NOAA

CYVM 291800Z 07009KT 15SM IC SCT080 SCT250 M30/M34 RMK AC3CC1 ALTM 2981 LAST STFD OBS/NXT 301100 UTC VIA CYQB DENSITY ALT MISG


Station Type Date Time Source
CYVM Decoded METAR 2023/01/29 18:00 UTC NOAA

Broughton Island Airport, Canada (CYVM) 67-33N 064-02W
Jan 29, 2023 - 01:00 PM EST / 2023.01.29 1800 UTC
Wind: from the ENE (070 degrees) at 10 MPH (9 KT):0
Visibility: 15 mile(s):0
Sky conditions: partly cloudy
Weather: ice crystals
Temperature: -22 F (-30 C)
Windchill: -43 F (-42 C):2
Dew Point: -29 F (-34 C)
Relative Humidity: 68%
ob: CYVM 291800Z 07009KT 15SM IC SCT080 SCT250 M30/M34 RMK AC3CC1 ALTM 2981 LAST STFD OBS/NXT 301100 UTC VIA CYQB DENSITY ALT MISG
cycle: 18

Station Type Date Time Source
CYVM TAF 2023/01/29 19:42 UTC NOAA

TAF CYVM 291841Z 2919/3007 VRB03KT P6SM FEW030 BKN050
FM292000 VRB03KT P6SM SKC
FM300400 18005KT P6SM SCT100
RMK NXT FCST BY 300100Z

Example: see airport list